createdAt,value
2023-02-22T00:00:50.136Z,8.72
2023-02-22T00:03:24.844Z,8.67
2023-02-22T00:05:55.721Z,8.68
2023-02-22T00:08:25.527Z,8.66
2023-02-22T00:10:55.332Z,8.68
2023-02-22T00:13:23.349Z,8.67
2023-02-22T00:15:51.180Z,8.69
2023-02-22T00:18:20.128Z,8.70
2023-02-22T00:20:48.112Z,8.63
2023-02-22T00:23:19.455Z,8.61
2023-02-22T00:25:48.356Z,8.42
2023-02-22T00:28:18.859Z,8.52
2023-02-22T00:30:48.238Z,8.39
2023-02-22T00:33:17.831Z,8.51
2023-02-22T00:35:46.583Z,8.52
2023-02-22T00:38:16.333Z,8.52
2023-02-22T00:40:45.197Z,8.49
2023-02-22T00:43:13.247Z,8.50
2023-02-22T00:45:43.333Z,8.50
2023-02-22T00:48:11.697Z,8.52
2023-02-22T00:50:39.433Z,8.42
2023-02-22T00:53:09.218Z,8.44
2023-02-22T00:55:38.614Z,8.45
2023-02-22T00:58:07.879Z,8.48
2023-02-22T01:00:38.176Z,8.49
2023-02-22T01:03:08.267Z,8.43
2023-02-22T01:05:36.452Z,8.45
2023-02-22T01:08:07.530Z,8.26
2023-02-22T01:10:35.517Z,8.49
2023-02-22T01:13:08.382Z,8.48
2023-02-22T01:15:38.173Z,8.41
2023-02-22T01:18:08.012Z,8.43
2023-02-22T01:20:36.841Z,8.40
2023-02-22T01:23:07.829Z,8.37
2023-02-22T01:25:36.921Z,8.34
2023-02-22T01:28:06.889Z,8.31
2023-02-22T01:30:36.560Z,8.32
2023-02-22T01:33:06.467Z,8.32
2023-02-22T01:35:37.425Z,8.40
2023-02-22T01:38:05.432Z,8.31
2023-02-22T01:40:35.492Z,8.39
2023-02-22T01:43:06.538Z,8.40
2023-02-22T01:45:44.153Z,8.32
2023-02-22T01:48:16.242Z,8.37
2023-02-22T01:50:49.481Z,8.27
2023-02-22T01:53:20.067Z,8.33
2023-02-22T01:55:48.767Z,8.39
2023-02-22T01:58:18.168Z,8.39
2023-02-22T02:00:45.959Z,8.41
2023-02-22T02:03:18.912Z,8.40
2023-02-22T02:05:49.135Z,8.36
2023-02-22T02:08:28.632Z,8.26
2023-02-22T02:10:57.940Z,8.38
2023-02-22T02:13:26.675Z,8.34
2023-02-22T02:15:56.079Z,8.28
2023-02-22T02:18:25.444Z,8.37
2023-02-22T02:21:11.854Z,8.28
2023-02-22T02:24:11.915Z,8.22
2023-02-22T02:27:09.676Z,8.24
2023-02-22T02:30:19.339Z,8.22
2023-02-22T02:32:54.833Z,8.22
2023-02-22T02:35:36.737Z,8.25
2023-02-22T02:38:14.632Z,8.20
2023-02-22T02:40:49.240Z,8.22
2023-02-22T02:43:27.795Z,8.23
2023-02-22T02:46:00.121Z,8.24
2023-02-22T02:48:34.199Z,8.08
2023-02-22T02:51:07.837Z,8.22
2023-02-22T02:53:39.396Z,8.23
2023-02-22T02:56:07.846Z,8.18
2023-02-22T02:58:44.899Z,8.22
2023-02-22T03:01:15.722Z,8.06
2023-02-22T03:03:58.039Z,8.20
2023-02-22T03:07:11.275Z,8.19
2023-02-22T03:09:47.694Z,8.18
2023-02-22T03:12:29.046Z,8.19
2023-02-22T03:15:07.388Z,8.20
2023-02-22T03:17:48.604Z,8.20
2023-02-22T03:20:31.633Z,8.06
2023-02-22T03:23:07.975Z,8.19
2023-02-22T03:25:39.635Z,8.14
2023-02-22T03:28:11.577Z,8.12
2023-02-22T03:30:44.272Z,8.16
2023-02-22T03:33:20.465Z,8.02
2023-02-22T03:35:56.738Z,8.15
2023-02-22T03:38:29.704Z,8.11
2023-02-22T03:41:02.220Z,8.13
2023-02-22T03:43:35.137Z,8.15
2023-02-22T03:46:06.564Z,8.16
2023-02-22T03:48:40.784Z,8.02
2023-02-22T03:51:11.163Z,8.10
2023-02-22T03:53:39.005Z,8.07
2023-02-22T03:56:12.208Z,8.07
2023-02-22T03:58:43.980Z,8.07
2023-02-22T04:01:12.809Z,8.09
2023-02-22T04:03:42.124Z,8.11
2023-02-22T04:06:11.819Z,8.02
2023-02-22T04:08:40.302Z,8.10
2023-02-22T04:11:08.742Z,8.04
2023-02-22T04:13:36.516Z,8.05
2023-02-22T04:16:04.323Z,8.08
2023-02-22T04:18:32.570Z,8.01
2023-02-22T04:21:01.246Z,7.95
2023-02-22T04:23:36.552Z,8.01
2023-02-22T04:26:04.535Z,8.05
2023-02-22T04:28:32.433Z,8.05
2023-02-22T04:31:26.252Z,7.93
2023-02-22T04:33:56.202Z,7.95
2023-02-22T04:36:28.741Z,7.91
2023-02-22T04:38:58.345Z,7.97
2023-02-22T04:41:28.396Z,7.93
2023-02-22T04:43:56.203Z,7.94
2023-02-22T04:46:27.358Z,7.87
2023-02-22T04:48:55.657Z,7.79
2023-02-22T04:51:26.387Z,7.85
2023-02-22T04:54:21.362Z,7.87
2023-02-22T04:56:49.476Z,7.76
2023-02-22T04:59:17.445Z,7.84
2023-02-22T05:01:47.756Z,7.83
2023-02-22T05:04:15.523Z,7.80
2023-02-22T05:06:54.971Z,7.79
2023-02-22T05:09:24.275Z,7.80
2023-02-22T05:11:52.219Z,7.80
2023-02-22T05:14:20.027Z,7.76
2023-02-22T05:16:49.571Z,7.80
2023-02-22T05:19:17.413Z,7.83
2023-02-22T05:21:45.210Z,7.73
2023-02-22T05:24:12.960Z,7.81
2023-02-22T05:26:42.174Z,7.77
2023-02-22T05:29:09.932Z,7.76
2023-02-22T05:31:37.803Z,7.73
2023-02-22T05:34:05.626Z,7.72
2023-02-22T05:36:47.931Z,7.22
2023-02-22T05:39:16.091Z,7.18
2023-02-22T05:41:45.279Z,7.64
2023-02-22T05:44:12.964Z,7.62
2023-02-22T05:46:40.687Z,7.54
2023-02-22T05:49:08.482Z,7.57
2023-02-22T05:51:36.262Z,7.55
2023-02-22T05:54:04.155Z,7.55
2023-02-22T05:56:31.913Z,7.53
2023-02-22T05:59:01.055Z,7.50
2023-02-22T06:01:29.119Z,7.47
2023-02-22T06:03:56.918Z,7.47
2023-02-22T06:06:24.651Z,7.43
2023-02-22T06:08:52.456Z,7.43
2023-02-22T06:11:20.553Z,7.34
2023-02-22T06:13:51.089Z,7.33
2023-02-22T06:16:21.103Z,7.31
2023-02-22T06:18:49.092Z,7.32
2023-02-22T06:21:17.486Z,7.31
2023-02-22T06:23:45.511Z,7.26
2023-02-22T06:26:13.510Z,7.22
2023-02-22T06:28:41.567Z,7.18
2023-02-22T06:31:09.369Z,7.04
2023-02-22T06:33:38.621Z,6.92
2023-02-22T06:36:07.113Z,7.05
2023-02-22T06:38:34.876Z,7.03
2023-02-22T06:41:02.826Z,7.02
2023-02-22T06:43:30.611Z,7.07
2023-02-22T06:45:58.316Z,7.08
2023-02-22T06:48:26.007Z,7.09
2023-02-22T06:50:55.146Z,7.11
2023-02-22T06:53:22.835Z,7.16
2023-02-22T06:55:50.723Z,7.22
2023-02-22T06:58:18.559Z,7.26
2023-02-22T07:00:46.608Z,7.26
2023-02-22T07:03:14.460Z,7.30
2023-02-22T07:05:42.265Z,7.38
2023-02-22T07:08:12.133Z,7.44
2023-02-22T07:10:41.003Z,7.39
2023-02-22T07:13:09.687Z,7.50
2023-02-22T07:15:37.810Z,7.53
2023-02-22T07:18:05.708Z,7.50
2023-02-22T07:20:34.235Z,7.60
2023-02-22T07:23:02.312Z,7.65
2023-02-22T07:25:31.645Z,7.66
2023-02-22T07:27:59.643Z,7.71
2023-02-22T07:30:30.990Z,7.73
2023-02-22T07:33:00.033Z,7.69
2023-02-22T07:35:29.545Z,7.80
2023-02-22T07:37:57.858Z,7.78
2023-02-22T07:40:27.174Z,7.93
2023-02-22T07:42:59.446Z,7.93
2023-02-22T07:45:29.840Z,7.95
2023-02-22T07:47:58.440Z,7.94
2023-02-22T07:50:27.578Z,7.99
2023-02-22T07:52:57.326Z,8.03
2023-02-22T07:55:27.903Z,8.08
2023-02-22T07:57:59.227Z,8.08
2023-02-22T08:00:29.649Z,8.04
2023-02-22T08:02:57.845Z,8.16
2023-02-22T08:05:27.883Z,8.17
2023-02-22T08:07:56.066Z,8.18
2023-02-22T08:10:25.930Z,8.20
2023-02-22T08:12:54.586Z,8.22
2023-02-22T08:15:25.955Z,8.24
2023-02-22T08:17:54.441Z,8.27
2023-02-22T08:20:22.467Z,8.24
2023-02-22T08:22:50.653Z,8.34
2023-02-22T08:25:20.353Z,8.38
2023-02-22T08:27:49.034Z,8.35
2023-02-22T08:30:18.890Z,8.44
2023-02-22T08:32:48.989Z,8.41
2023-02-22T08:35:18.253Z,8.54
2023-02-22T08:37:46.403Z,8.20
2023-02-22T08:40:17.756Z,8.65
2023-02-22T08:42:45.990Z,8.73
2023-02-22T08:45:14.320Z,8.73
2023-02-22T08:47:42.980Z,8.79
2023-02-22T08:50:18.684Z,8.84
2023-02-22T08:52:46.433Z,8.89
2023-02-22T08:55:14.965Z,8.91
2023-02-22T08:57:42.772Z,8.93
2023-02-22T09:00:11.879Z,9.01
2023-02-22T09:02:39.688Z,9.06
2023-02-22T09:05:08.514Z,9.06
2023-02-22T09:07:37.780Z,9.10
2023-02-22T09:10:06.143Z,9.03
2023-02-22T09:12:33.923Z,9.24
2023-02-22T09:15:01.706Z,9.28
2023-02-22T09:17:29.509Z,9.18
2023-02-22T09:19:57.298Z,9.38
2023-02-22T09:22:25.057Z,9.43
2023-02-22T09:24:56.990Z,9.44
2023-02-22T09:27:28.194Z,9.48
2023-02-22T09:29:56.945Z,9.56
2023-02-22T09:32:27.627Z,9.63
2023-02-22T09:34:55.800Z,9.66
2023-02-22T09:37:23.958Z,9.75
2023-02-22T09:39:52.283Z,9.84
2023-02-22T09:42:30.852Z,9.88
2023-02-22T09:45:05.909Z,9.73
2023-02-22T09:47:41.919Z,9.93
2023-02-22T09:50:16.534Z,9.98
2023-02-22T09:52:54.705Z,10.03
2023-02-22T09:55:34.186Z,10.13
2023-02-22T09:58:07.272Z,10.26
2023-02-22T10:00:38.558Z,10.34
2023-02-22T10:03:20.463Z,10.42
2023-02-22T10:05:54.140Z,10.57
2023-02-22T10:08:22.111Z,10.63
2023-02-22T10:11:00.285Z,10.74
2023-02-22T10:13:39.305Z,10.81
2023-02-22T10:16:17.317Z,10.94
2023-02-22T10:19:03.490Z,11.06
2023-02-22T10:21:42.564Z,11.10
2023-02-22T10:24:23.572Z,11.20
2023-02-22T10:26:52.144Z,11.26
2023-02-22T10:29:31.395Z,11.38
2023-02-22T10:32:03.040Z,11.43
2023-02-22T10:34:34.939Z,11.57
2023-02-22T10:37:17.552Z,11.67
2023-02-22T10:39:46.670Z,11.87
2023-02-22T10:42:15.741Z,12.02
2023-02-22T10:44:44.871Z,12.18
2023-02-22T10:47:18.137Z,12.39
2023-02-22T10:49:50.724Z,12.43
2023-02-22T10:52:24.643Z,12.55
2023-02-22T10:54:54.437Z,12.77
2023-02-22T10:57:27.457Z,12.91
2023-02-22T10:59:57.792Z,13.19
2023-02-22T11:02:31.142Z,13.48
2023-02-22T11:05:00.640Z,13.60
2023-02-22T11:07:30.842Z,13.71
2023-02-22T11:10:00.778Z,14.07
2023-02-22T11:12:31.964Z,14.36
2023-02-22T11:15:27.717Z,14.53
2023-02-22T11:17:57.771Z,14.68
2023-02-22T11:20:28.083Z,14.70
2023-02-22T11:22:58.219Z,14.69
2023-02-22T11:25:28.387Z,14.79
2023-02-22T11:27:59.931Z,14.78
2023-02-22T11:30:33.042Z,14.97
2023-02-22T11:33:11.883Z,15.17
2023-02-22T11:35:50.117Z,15.29
2023-02-22T11:38:22.038Z,15.29
2023-02-22T11:41:14.487Z,15.20
2023-02-22T11:43:42.482Z,15.26
2023-02-22T11:46:15.820Z,15.05
2023-02-22T11:48:55.119Z,15.05
2023-02-22T11:51:36.877Z,15.00
2023-02-22T11:54:38.099Z,15.05
2023-02-22T11:57:21.997Z,15.00
2023-02-22T12:00:02.478Z,15.22
2023-02-22T12:02:57.436Z,15.44
2023-02-22T12:05:37.249Z,15.29
2023-02-22T12:08:19.975Z,15.37
2023-02-22T12:11:03.382Z,15.56
2023-02-22T12:13:41.155Z,15.72
2023-02-22T12:16:19.711Z,15.79
2023-02-22T12:19:03.513Z,15.74
2023-02-22T12:21:33.904Z,15.47
2023-02-22T12:24:05.530Z,15.35
2023-02-22T12:26:38.768Z,15.23
2023-02-22T12:29:14.494Z,15.21
2023-02-22T12:31:46.546Z,15.25
2023-02-22T12:34:30.499Z,15.34
2023-02-22T12:37:11.581Z,15.39
2023-02-22T12:39:53.569Z,15.40
2023-02-22T12:42:29.278Z,15.33
2023-02-22T12:45:02.195Z,15.23
2023-02-22T12:47:36.921Z,15.23
2023-02-22T12:50:15.843Z,15.05
2023-02-22T12:52:48.888Z,14.86
2023-02-22T12:55:25.051Z,14.93
2023-02-22T12:58:01.976Z,14.89
2023-02-22T13:00:40.489Z,14.76
2023-02-22T13:03:28.339Z,14.83
2023-02-22T13:06:18.647Z,14.80
2023-02-22T13:08:55.403Z,14.75
2023-02-22T13:11:32.425Z,14.73
2023-02-22T13:14:16.538Z,14.68
2023-02-22T13:16:53.516Z,14.65
2023-02-22T13:19:41.974Z,14.60
2023-02-22T13:22:16.984Z,14.61
2023-02-22T13:24:58.552Z,14.61
2023-02-22T13:27:31.425Z,14.64
2023-02-22T13:30:01.435Z,14.65
2023-02-22T13:32:43.579Z,14.66
2023-02-22T13:35:26.249Z,14.63
2023-02-22T13:38:21.243Z,14.56
2023-02-22T13:41:09.879Z,14.55
2023-02-22T13:43:52.768Z,14.50
2023-02-22T13:46:44.077Z,14.46
2023-02-22T13:49:37.537Z,14.44
2023-02-22T13:52:12.112Z,14.42
2023-02-22T13:54:46.550Z,14.48
2023-02-22T13:57:22.562Z,14.53
2023-02-22T14:00:11.270Z,14.61
2023-02-22T14:03:00.893Z,14.67
2023-02-22T14:05:51.798Z,14.78
2023-02-22T14:08:45.685Z,14.83
2023-02-22T14:11:56.645Z,14.91
2023-02-22T14:14:25.928Z,14.97
2023-02-22T14:17:23.790Z,14.87
2023-02-22T14:20:21.593Z,14.89
2023-02-22T14:22:52.415Z,14.74
2023-02-22T14:25:37.277Z,14.81
2023-02-22T14:28:06.949Z,14.83
2023-02-22T14:30:38.724Z,14.81
2023-02-22T14:33:47.124Z,14.83
2023-02-22T14:36:16.901Z,14.85
2023-02-22T14:38:46.769Z,14.86
2023-02-22T14:41:17.949Z,14.88
2023-02-22T14:43:47.366Z,14.90
2023-02-22T14:46:21.278Z,14.96
2023-02-22T14:48:53.274Z,14.99
2023-02-22T14:51:29.100Z,14.99
2023-02-22T14:54:04.626Z,15.02
2023-02-22T14:56:41.093Z,15.02
2023-02-22T14:59:21.092Z,14.94
2023-02-22T15:02:02.236Z,14.99
2023-02-22T15:04:37.821Z,14.99
2023-02-22T15:07:22.448Z,14.92
2023-02-22T15:09:50.302Z,14.90
2023-02-22T15:12:29.811Z,14.87
2023-02-22T15:15:14.721Z,14.74
2023-02-22T15:17:46.208Z,14.78
2023-02-22T15:20:17.591Z,14.59
2023-02-22T15:22:46.806Z,14.64
2023-02-22T15:25:14.991Z,14.52
2023-02-22T15:27:47.950Z,14.42
2023-02-22T15:30:21.223Z,14.41
2023-02-22T15:33:03.221Z,14.48
2023-02-22T15:35:33.923Z,14.45
2023-02-22T15:38:06.161Z,14.40
2023-02-22T15:40:34.421Z,14.35
2023-02-22T15:43:04.247Z,14.28
2023-02-22T15:45:32.876Z,14.22
2023-02-22T15:48:00.750Z,14.12
2023-02-22T15:50:30.431Z,13.99
2023-02-22T15:53:01.703Z,13.90
2023-02-22T15:55:34.816Z,13.83
2023-02-22T15:58:11.195Z,13.75
2023-02-22T16:00:41.157Z,13.70
2023-02-22T16:03:12.146Z,13.62
2023-02-22T16:05:46.570Z,13.49
2023-02-22T16:08:19.799Z,13.47
2023-02-22T16:10:54.432Z,13.42
2023-02-22T16:13:32.936Z,13.37
2023-02-22T16:16:23.923Z,13.27
2023-02-22T16:18:53.393Z,13.23
2023-02-22T16:21:31.528Z,13.06
2023-02-22T16:24:15.273Z,13.08
2023-02-22T16:27:04.552Z,12.97
2023-02-22T16:29:32.493Z,12.92
2023-02-22T16:32:01.744Z,12.86
2023-02-22T16:34:30.228Z,12.79
2023-02-22T16:36:58.823Z,12.60
2023-02-22T16:39:28.430Z,12.66
2023-02-22T16:41:59.580Z,12.47
2023-02-22T16:44:27.790Z,12.50
2023-02-22T16:46:57.688Z,12.42
2023-02-22T16:49:25.709Z,12.40
2023-02-22T16:52:08.340Z,12.20
2023-02-22T16:54:45.591Z,12.19
2023-02-22T16:57:21.584Z,12.12
2023-02-22T16:59:52.876Z,12.19
2023-02-22T17:02:26.112Z,12.15
2023-02-22T17:04:54.056Z,12.07
2023-02-22T17:07:30.949Z,12.08
2023-02-22T17:09:59.260Z,12.02
2023-02-22T17:12:31.906Z,12.00
2023-02-22T17:14:59.797Z,11.96
2023-02-22T17:17:27.709Z,12.04
2023-02-22T17:19:55.855Z,12.03
2023-02-22T17:22:24.011Z,12.02
2023-02-22T17:24:52.138Z,11.96
2023-02-22T17:27:19.877Z,11.89
2023-02-22T17:29:49.625Z,11.86
2023-02-22T17:32:17.544Z,11.84
2023-02-22T17:34:45.313Z,11.76
2023-02-22T17:37:13.075Z,11.82
2023-02-22T17:39:40.864Z,11.77
2023-02-22T17:42:08.652Z,11.74
2023-02-22T17:44:36.712Z,11.77
2023-02-22T17:47:06.147Z,11.80
2023-02-22T17:49:33.850Z,11.77
2023-02-22T17:52:06.136Z,11.73
2023-02-22T17:54:34.098Z,11.78
2023-02-22T17:57:02.000Z,11.81
2023-02-22T17:59:29.690Z,11.73
2023-02-22T18:01:57.512Z,11.74
2023-02-22T18:04:26.646Z,11.74
2023-02-22T18:06:54.440Z,11.67
2023-02-22T18:09:23.335Z,11.71
2023-02-22T18:11:51.091Z,11.76
2023-02-22T18:14:18.785Z,11.73
2023-02-22T18:16:47.918Z,11.66
2023-02-22T18:19:20.037Z,11.56
2023-02-22T18:21:52.362Z,11.56
2023-02-22T18:24:20.119Z,11.53
2023-02-22T18:26:47.948Z,11.49
2023-02-22T18:29:15.822Z,11.44
2023-02-22T18:31:45.343Z,11.48
2023-02-22T18:34:13.438Z,11.52
2023-02-22T18:36:41.141Z,11.55
2023-02-22T18:39:12.996Z,11.65
2023-02-22T18:41:40.792Z,11.66
2023-02-22T18:44:11.098Z,11.71
2023-02-22T18:46:39.353Z,11.63
2023-02-22T18:49:07.193Z,11.66
2023-02-22T18:51:35.274Z,11.65
2023-02-22T18:54:02.992Z,11.68
2023-02-22T18:56:33.937Z,11.74
2023-02-22T18:59:03.414Z,11.78
2023-02-22T19:01:35.647Z,11.72
2023-02-22T19:04:03.573Z,11.83
2023-02-22T19:06:31.394Z,11.81
2023-02-22T19:09:02.098Z,11.80
2023-02-22T19:11:29.984Z,11.83
2023-02-22T19:13:59.597Z,11.84
2023-02-22T19:16:28.174Z,11.82
2023-02-22T19:18:57.983Z,11.88
2023-02-22T19:21:27.046Z,11.91
2023-02-22T19:24:01.222Z,11.86
2023-02-22T19:26:30.188Z,11.76
2023-02-22T19:29:04.636Z,11.89
2023-02-22T19:31:33.926Z,11.80
2023-02-22T19:34:03.126Z,11.85
2023-02-22T19:36:31.010Z,11.85
2023-02-22T19:39:01.554Z,11.83
2023-02-22T19:41:30.037Z,11.76
2023-02-22T19:43:59.839Z,11.82
2023-02-22T19:46:28.222Z,11.81
2023-02-22T19:48:56.446Z,11.82
2023-02-22T19:51:27.791Z,11.82
2023-02-22T19:53:58.818Z,11.80
2023-02-22T19:56:28.299Z,11.72
2023-02-22T19:58:58.028Z,11.74
2023-02-22T20:01:29.178Z,11.80
2023-02-22T20:03:59.861Z,11.81
2023-02-22T20:06:29.760Z,11.77
2023-02-22T20:08:58.089Z,11.77
2023-02-22T20:11:26.186Z,11.70
2023-02-22T20:13:55.548Z,11.67
2023-02-22T20:16:23.976Z,11.70
2023-02-22T20:18:54.430Z,11.73
2023-02-22T20:21:25.605Z,11.73
2023-02-22T20:23:57.069Z,11.71
2023-02-22T20:26:25.559Z,11.68
2023-02-22T20:29:03.952Z,11.55
2023-02-22T20:31:32.448Z,11.60
2023-02-22T20:34:02.331Z,11.62
2023-02-22T20:36:31.819Z,11.61
2023-02-22T20:39:00.617Z,11.60
2023-02-22T20:41:30.424Z,11.63
2023-02-22T20:43:59.856Z,11.59
2023-02-22T20:46:31.315Z,11.61
2023-02-22T20:49:01.983Z,11.60
2023-02-22T20:51:30.711Z,11.57
2023-02-22T20:54:00.027Z,11.59
2023-02-22T20:56:29.749Z,11.50
2023-02-22T20:59:03.126Z,11.54
2023-02-22T21:01:34.394Z,11.58
2023-02-22T21:04:04.818Z,11.59
2023-02-22T21:06:35.306Z,11.57
2023-02-22T21:09:07.251Z,11.56
2023-02-22T21:11:35.576Z,11.57
2023-02-22T21:14:04.017Z,11.55
2023-02-22T21:16:34.181Z,11.54
2023-02-22T21:19:05.439Z,11.54
2023-02-22T21:21:33.763Z,11.52
2023-02-22T21:24:02.193Z,11.50
2023-02-22T21:26:32.613Z,11.25
2023-02-22T21:29:03.252Z,11.46
2023-02-22T21:31:32.390Z,11.46
2023-02-22T21:34:01.100Z,11.44
2023-02-22T21:36:31.951Z,11.44
2023-02-22T21:39:01.443Z,11.45
2023-02-22T21:41:32.235Z,11.36
2023-02-22T21:44:01.010Z,11.42
2023-02-22T21:46:30.427Z,11.37
2023-02-22T21:48:59.503Z,11.42
2023-02-22T21:51:33.848Z,11.38
2023-02-22T21:54:03.381Z,11.35
2023-02-22T21:56:34.224Z,11.40
2023-02-22T21:59:05.010Z,11.34
2023-02-22T22:01:37.813Z,11.37
2023-02-22T22:04:06.248Z,11.23
2023-02-22T22:06:36.732Z,11.36
2023-02-22T22:09:18.077Z,11.33
2023-02-22T22:11:51.014Z,11.20
2023-02-22T22:14:20.462Z,11.33
2023-02-22T22:16:49.076Z,11.32
2023-02-22T22:19:17.315Z,11.31
2023-02-22T22:21:48.864Z,11.17
2023-02-22T22:24:16.920Z,11.24
2023-02-22T22:26:45.076Z,11.23
2023-02-22T22:29:14.469Z,11.22
2023-02-22T22:31:42.424Z,11.17
2023-02-22T22:34:10.210Z,11.16
2023-02-22T22:36:41.977Z,11.12
2023-02-22T22:39:13.772Z,11.23
2023-02-22T22:41:45.388Z,11.24
2023-02-22T22:44:16.093Z,11.15
2023-02-22T22:46:49.002Z,11.20
2023-02-22T22:49:17.420Z,11.09
2023-02-22T22:51:47.295Z,11.14
2023-02-22T22:54:16.436Z,11.19
2023-02-22T22:56:44.225Z,11.14
2023-02-22T22:59:13.362Z,11.05
2023-02-22T23:01:44.720Z,11.01
2023-02-22T23:04:17.932Z,11.04
2023-02-22T23:06:49.864Z,11.16
2023-02-22T23:09:21.788Z,11.18
2023-02-22T23:11:53.275Z,11.18
2023-02-22T23:14:24.178Z,11.17
2023-02-22T23:16:56.494Z,11.18
2023-02-22T23:19:24.345Z,11.16
2023-02-22T23:21:52.167Z,11.14
2023-02-22T23:24:21.531Z,11.15
2023-02-22T23:26:49.476Z,11.12
2023-02-22T23:29:18.637Z,11.15
2023-02-22T23:31:48.458Z,11.14
2023-02-22T23:34:21.052Z,11.14
2023-02-22T23:36:54.271Z,11.08
2023-02-22T23:39:24.908Z,11.07
2023-02-22T23:41:53.806Z,11.14
2023-02-22T23:44:22.026Z,11.04
2023-02-22T23:46:55.136Z,11.12
2023-02-22T23:49:23.919Z,11.10
2023-02-22T23:51:52.551Z,11.08
2023-02-22T23:54:21.670Z,11.11
2023-02-22T23:56:56.603Z,11.10
2023-02-22T23:59:26.401Z,11.10
